createdAt,value
2023-02-22T00:01:16.028Z,1418.6
2023-02-22T00:02:59.738Z,1408.8
2023-02-22T00:04:43.420Z,1386.7
2023-02-22T00:06:27.118Z,1363.2
2023-02-22T00:08:10.824Z,1356.8
2023-02-22T00:09:54.523Z,1349.7
2023-02-22T00:11:38.229Z,1345.5
2023-02-22T00:13:21.940Z,1345.3
2023-02-22T00:15:05.641Z,1358
2023-02-22T00:16:49.346Z,1361.2
2023-02-22T00:18:33.037Z,1357.7
2023-02-22T00:20:16.740Z,1348.3
2023-02-22T00:22:00.452Z,1346.9
2023-02-22T00:23:44.150Z,1348.9
2023-02-22T00:25:27.849Z,1353.3
2023-02-22T00:27:11.555Z,1360.6
2023-02-22T00:28:55.255Z,1422.1
2023-02-22T00:30:38.962Z,1440.8
2023-02-22T00:32:22.666Z,1427.2
2023-02-22T00:34:06.362Z,1386
2023-02-22T00:35:50.069Z,1347.4
2023-02-22T00:37:33.769Z,1346.5
2023-02-22T00:39:17.475Z,1352.3
2023-02-22T00:41:01.173Z,1358.3
2023-02-22T00:42:44.872Z,1372.9
2023-02-22T00:44:28.576Z,1384.9
2023-02-22T00:46:12.283Z,1387
2023-02-22T00:47:55.978Z,1376.8
2023-02-22T00:49:39.689Z,1370.5
2023-02-22T00:51:23.374Z,1353.4
2023-02-22T00:53:07.086Z,1346.8
2023-02-22T00:54:50.809Z,1347.7
2023-02-22T00:56:34.493Z,1357.6
2023-02-22T00:58:18.212Z,1362.7
2023-02-22T01:00:01.907Z,1363.8
2023-02-22T01:01:45.606Z,1356.6
2023-02-22T01:03:29.312Z,1346.9
2023-02-22T01:05:13.009Z,1341
2023-02-22T01:06:56.706Z,1342.6
2023-02-22T01:08:40.471Z,1349.9
2023-02-22T01:10:24.132Z,1351.7
2023-02-22T01:12:07.814Z,1350.2
2023-02-22T01:13:51.519Z,1346.7
2023-02-22T01:15:35.235Z,1342.2
2023-02-22T01:17:18.937Z,1327.2
2023-02-22T01:19:02.632Z,1330.5
2023-02-22T01:20:46.327Z,1334.7
2023-02-22T01:22:30.039Z,1338.5
2023-02-22T01:24:13.799Z,1335.2
2023-02-22T01:25:57.442Z,1335.7
2023-02-22T01:27:41.144Z,1337.1
2023-02-22T01:29:24.847Z,1334.6
2023-02-22T01:31:08.551Z,1329.4
2023-02-22T01:32:52.245Z,1322.1
2023-02-22T01:34:35.987Z,1317.8
2023-02-22T01:38:03.354Z,1293.9
2023-02-22T01:39:47.063Z,1291.2
2023-02-22T01:41:30.765Z,1296.7
2023-02-22T01:43:14.465Z,1300.4
2023-02-22T01:44:58.172Z,1299.8
2023-02-22T01:46:41.866Z,1293.9
2023-02-22T01:48:25.571Z,1292.9
2023-02-22T01:50:09.279Z,1289.2
2023-02-22T01:51:52.969Z,1281.4
2023-02-22T01:53:36.699Z,1266.2
2023-02-22T01:55:20.377Z,1261.2
2023-02-22T01:57:04.079Z,1262.1
2023-02-22T01:58:47.787Z,1262.1
2023-02-22T02:00:31.508Z,1261.1
2023-02-22T02:02:15.189Z,1258.5
2023-02-22T02:03:58.889Z,1257.4
2023-02-22T02:05:42.584Z,1250.2
2023-02-22T02:07:26.295Z,1251.4
2023-02-22T02:09:09.990Z,1247
2023-02-22T02:10:53.708Z,1247.6
2023-02-22T02:12:37.404Z,1248.3
2023-02-22T02:14:21.102Z,1253.2
2023-02-22T02:16:04.811Z,1253.4
2023-02-22T02:17:48.513Z,1249.5
2023-02-22T02:19:32.212Z,1244
2023-02-22T02:21:15.920Z,1242.2
2023-02-22T02:22:59.623Z,1241.2
2023-02-22T02:24:43.326Z,1235.1
2023-02-22T02:26:27.032Z,1227.7
2023-02-22T02:28:10.732Z,1222.5
2023-02-22T02:29:54.438Z,1224.7
2023-02-22T02:31:38.143Z,1224.1
2023-02-22T02:33:21.839Z,1224.6
2023-02-22T02:35:05.551Z,1227
2023-02-22T02:36:49.248Z,1221.1
2023-02-22T02:38:32.961Z,1222.9
2023-02-22T02:40:16.655Z,1225.4
2023-02-22T02:42:00.350Z,1225.5
2023-02-22T02:43:44.048Z,1223.8
2023-02-22T02:45:27.787Z,1222.4
2023-02-22T02:47:11.458Z,1217.2
2023-02-22T02:48:55.145Z,1215.7
2023-02-22T02:50:38.867Z,1213
2023-02-22T02:52:22.563Z,1213.3
2023-02-22T02:54:06.267Z,1212.7
2023-02-22T02:55:49.971Z,1214.1
2023-02-22T02:57:33.670Z,1214.5
2023-02-22T02:59:17.392Z,1213.2
2023-02-22T03:01:01.074Z,1211.2
2023-02-22T03:02:44.781Z,1205.7
2023-02-22T03:04:28.495Z,1200.3
2023-02-22T03:06:12.193Z,1199
2023-02-22T03:07:55.889Z,1196.7
2023-02-22T03:09:39.593Z,1191.8
2023-02-22T03:11:23.295Z,1188.4
2023-02-22T03:13:07.017Z,1187.3
2023-02-22T03:14:50.694Z,1186.6
2023-02-22T03:16:34.401Z,1188.5
2023-02-22T03:18:18.110Z,1190.5
2023-02-22T03:20:01.805Z,1189.2
2023-02-22T03:21:45.507Z,1186.8
2023-02-22T03:23:29.209Z,1184.9
2023-02-22T03:25:12.909Z,1180.8
2023-02-22T03:26:56.627Z,1176.6
2023-02-22T03:28:40.326Z,1173.1
2023-02-22T03:30:24.023Z,1171.3
2023-02-22T03:32:07.734Z,1169.2
2023-02-22T03:33:51.430Z,1168.7
2023-02-22T03:35:35.155Z,1169.6
2023-02-22T03:37:18.838Z,1170.3
2023-02-22T03:39:02.540Z,1167.3
2023-02-22T03:40:46.245Z,1166.5
2023-02-22T03:42:29.939Z,1164.5
2023-02-22T03:44:13.643Z,1166.9
2023-02-22T03:45:57.360Z,1168.6
2023-02-22T03:47:41.052Z,1165.6
2023-02-22T03:49:24.760Z,1161.5
2023-02-22T03:51:08.462Z,1162.1
2023-02-22T03:52:52.161Z,1160.8
2023-02-22T03:54:35.868Z,1157.6
2023-02-22T03:56:19.562Z,1156.4
2023-02-22T03:58:03.272Z,1156.5
2023-02-22T03:59:46.975Z,1152.2
2023-02-22T04:01:30.676Z,1151.4
2023-02-22T04:03:14.383Z,1152.2
2023-02-22T04:04:58.081Z,1152.9
2023-02-22T04:06:41.784Z,1154.1
2023-02-22T04:08:25.483Z,1150.2
2023-02-22T04:10:09.181Z,1145.4
2023-02-22T04:11:52.886Z,1149.4
2023-02-22T04:13:36.592Z,1145.7
2023-02-22T04:15:20.286Z,1145.7
2023-02-22T04:17:03.995Z,1142.8
2023-02-22T04:18:47.705Z,1145.1
2023-02-22T04:20:31.395Z,1141
2023-02-22T04:22:15.103Z,1137.1
2023-02-22T04:23:58.791Z,1133.3
2023-02-22T04:25:42.511Z,1130.8
2023-02-22T04:27:26.208Z,1132
2023-02-22T04:29:09.910Z,1131.1
2023-02-22T04:30:53.614Z,1131.7
2023-02-22T04:32:37.313Z,1134.5
2023-02-22T04:34:21.013Z,1135
2023-02-22T04:36:04.717Z,1130.8
2023-02-22T04:37:48.421Z,1131.8
2023-02-22T04:39:32.121Z,1123.5
2023-02-22T04:41:15.887Z,1117.7
2023-02-22T04:42:59.527Z,1115.9
2023-02-22T04:44:43.236Z,1116.7
2023-02-22T04:46:26.945Z,1116.3
2023-02-22T04:48:10.649Z,1121
2023-02-22T04:49:54.340Z,1124
2023-02-22T04:51:38.048Z,1123.7
2023-02-22T04:53:21.774Z,1117.3
2023-02-22T04:55:05.456Z,1118.9
2023-02-22T04:56:49.152Z,1118.5
2023-02-22T04:58:32.860Z,1115.9
2023-02-22T05:00:16.587Z,1116.5
2023-02-22T05:02:00.262Z,1120
2023-02-22T05:03:43.960Z,1124.9
2023-02-22T05:05:27.666Z,1120.8
2023-02-22T05:07:11.374Z,1121.7
2023-02-22T05:08:55.074Z,1119.3
2023-02-22T05:10:38.774Z,1118.9
2023-02-22T05:12:22.472Z,1117.5
2023-02-22T05:14:06.201Z,1116.1
2023-02-22T05:15:49.880Z,1115.6
2023-02-22T05:17:33.587Z,1112.5
2023-02-22T05:19:17.293Z,1109.1
2023-02-22T05:21:00.996Z,1106.8
2023-02-22T05:22:44.701Z,1104.8
2023-02-22T05:24:28.387Z,1105.9
2023-02-22T05:26:12.099Z,1103.2
2023-02-22T05:27:55.807Z,1101.2
2023-02-22T05:29:39.500Z,1101.5
2023-02-22T05:31:23.209Z,1100.8
2023-02-22T05:33:06.913Z,1102.6
2023-02-22T05:34:50.611Z,1101.6
2023-02-22T05:36:34.321Z,1099.2
2023-02-22T05:38:18.005Z,1101.4
2023-02-22T05:40:01.741Z,1100.9
2023-02-22T05:41:45.427Z,1099.5
2023-02-22T05:43:29.119Z,1093.9
2023-02-22T05:45:12.827Z,1092.8
2023-02-22T05:46:56.538Z,1095.6
2023-02-22T05:48:40.229Z,1093
2023-02-22T05:50:23.942Z,1091.5
2023-02-22T05:52:07.645Z,1089.4
2023-02-22T05:53:51.344Z,1088.4
2023-02-22T05:55:35.039Z,1090.6
2023-02-22T05:57:18.740Z,1090.8
2023-02-22T05:59:02.444Z,1090.4
2023-02-22T06:00:46.149Z,1088.5
2023-02-22T06:02:29.850Z,1087.1
2023-02-22T06:04:13.554Z,1087.9
2023-02-22T06:05:57.257Z,1089.9
2023-02-22T06:07:40.955Z,1089.8
2023-02-22T06:09:24.665Z,1088.5
2023-02-22T06:11:08.360Z,1087.3
2023-02-22T06:12:52.064Z,1080.5
2023-02-22T06:14:35.773Z,1081.9
2023-02-22T06:16:19.497Z,1081.3
2023-02-22T06:18:03.178Z,1081
2023-02-22T06:19:46.870Z,1078.9
2023-02-22T06:21:30.577Z,1083.4
2023-02-22T06:23:14.289Z,1081.7
2023-02-22T06:24:57.982Z,1079.7
2023-02-22T06:26:41.684Z,1079.4
2023-02-22T06:28:25.392Z,1081.4
2023-02-22T06:30:09.081Z,1080.8
2023-02-22T06:31:52.790Z,1076.9
2023-02-22T06:33:36.480Z,1090.1
2023-02-22T06:37:03.898Z,1116.4
2023-02-22T06:38:47.594Z,1105.6
2023-02-22T06:40:31.306Z,1104.6
2023-02-22T06:42:15.043Z,1103.2
2023-02-22T06:43:58.699Z,1101.5
2023-02-22T06:45:42.412Z,1099.6
2023-02-22T06:47:26.111Z,1099
2023-02-22T06:49:09.821Z,1140.7
2023-02-22T06:50:53.521Z,1200.1
2023-02-22T06:52:37.219Z,1207.9
2023-02-22T06:54:20.919Z,1205.9
2023-02-22T06:56:04.630Z,1207.7
2023-02-22T06:57:48.327Z,1203.9
2023-02-22T06:59:32.030Z,1205.7
2023-02-22T07:01:15.740Z,1206.3
2023-02-22T07:02:59.436Z,1202.3
2023-02-22T07:04:43.149Z,1196.1
2023-02-22T07:06:26.832Z,1191.2
2023-02-22T07:08:10.549Z,1189.9
2023-02-22T07:09:54.251Z,1191.9
2023-02-22T07:11:37.951Z,1192.7
2023-02-22T07:13:21.648Z,1192.3
2023-02-22T07:15:05.358Z,1192.2
2023-02-22T07:16:49.070Z,1186.3
2023-02-22T07:18:32.765Z,1183.1
2023-02-22T07:20:16.468Z,1179.3
2023-02-22T07:22:00.170Z,1175.6
2023-02-22T07:23:43.869Z,1175.7
2023-02-22T07:25:27.569Z,1183.2
2023-02-22T07:27:11.277Z,1185.5
2023-02-22T07:28:54.998Z,1182
2023-02-22T07:30:38.692Z,1175.7
2023-02-22T07:32:22.381Z,1177.4
2023-02-22T07:34:06.092Z,1174.9
2023-02-22T07:35:49.811Z,1170.3
2023-02-22T07:37:33.509Z,1163.7
2023-02-22T07:39:17.224Z,1159.2
2023-02-22T07:41:00.899Z,1153.1
2023-02-22T07:42:44.644Z,1146.9
2023-02-22T07:44:28.306Z,1147
2023-02-22T07:46:12.008Z,1149.6
2023-02-22T07:47:55.718Z,1153.2
2023-02-22T07:49:39.489Z,1154.7
2023-02-22T07:51:23.179Z,1156.4
2023-02-22T07:53:06.828Z,1158.4
2023-02-22T07:54:50.541Z,1150.6
2023-02-22T07:56:34.233Z,1151.2
2023-02-22T07:58:17.932Z,1145.7
2023-02-22T08:00:01.642Z,1142.9
2023-02-22T08:01:45.324Z,1141.4
2023-02-22T08:03:29.040Z,1137.8
2023-02-22T08:05:12.745Z,1134.2
2023-02-22T08:06:56.452Z,1134.7
2023-02-22T08:08:40.167Z,1134.3
2023-02-22T08:10:23.871Z,1134.9
2023-02-22T08:12:07.538Z,1130.5
2023-02-22T08:13:51.282Z,1133
2023-02-22T08:15:35.028Z,1134.8
2023-02-22T08:17:18.672Z,1137.1
2023-02-22T08:19:02.373Z,1141.5
2023-02-22T08:20:46.087Z,1146.7
2023-02-22T08:22:29.776Z,1146.8
2023-02-22T08:24:13.483Z,1159.5
2023-02-22T08:25:57.173Z,1160.6
2023-02-22T08:27:40.870Z,1153.7
2023-02-22T08:29:24.582Z,1150.2
2023-02-22T08:31:08.274Z,1148.6
2023-02-22T08:32:52.020Z,1146.9
2023-02-22T08:34:35.694Z,1144.6
2023-02-22T08:36:19.401Z,1144.5
2023-02-22T08:38:03.100Z,1140.5
2023-02-22T08:39:46.796Z,1136.1
2023-02-22T08:41:30.548Z,1134.2
2023-02-22T08:43:14.210Z,1129.6
2023-02-22T08:44:57.911Z,1127.9
2023-02-22T08:46:41.610Z,1128.3
2023-02-22T08:48:25.390Z,1127.4
2023-02-22T08:50:09.012Z,1119.5
2023-02-22T08:51:52.721Z,1115.5
2023-02-22T08:53:36.415Z,1113.9
2023-02-22T08:55:20.146Z,1111.7
2023-02-22T08:57:03.823Z,1104.2
2023-02-22T08:58:47.526Z,1099.1
2023-02-22T09:00:31.236Z,1097.9
2023-02-22T09:02:14.926Z,1093.4
2023-02-22T09:03:58.638Z,1090.8
2023-02-22T09:05:42.339Z,1089.2
2023-02-22T09:07:26.038Z,1085.7
2023-02-22T09:09:09.830Z,1083.8
2023-02-22T09:10:53.550Z,1080.2
2023-02-22T09:12:37.144Z,1079.1
2023-02-22T09:14:21.056Z,1074.5
2023-02-22T09:16:04.550Z,1072.6
2023-02-22T09:17:48.249Z,1072.3
2023-02-22T09:19:32.041Z,1063.9
2023-02-22T09:21:15.653Z,1063.1
2023-02-22T09:22:59.368Z,1061.4
2023-02-22T09:24:43.089Z,1058.7
2023-02-22T09:26:26.759Z,1056
2023-02-22T09:28:10.507Z,1050.5
2023-02-22T09:29:54.252Z,1046.7
2023-02-22T09:31:37.869Z,1044.5
2023-02-22T09:33:21.577Z,1044
2023-02-22T09:35:05.271Z,1043.6
2023-02-22T09:36:49.111Z,1041.5
2023-02-22T09:38:32.803Z,1044.2
2023-02-22T09:40:16.382Z,1043.9
2023-02-22T09:42:00.090Z,1041.4
2023-02-22T09:43:43.790Z,1035.2
2023-02-22T09:45:27.506Z,1026.4
2023-02-22T09:47:11.191Z,1024.6
2023-02-22T09:48:54.899Z,1020.8
2023-02-22T09:50:38.610Z,1019.5
2023-02-22T09:52:22.321Z,1018.3
2023-02-22T09:54:05.999Z,1008.9
2023-02-22T09:55:49.704Z,1010.7
2023-02-22T09:57:33.441Z,1008.4
2023-02-22T09:59:17.116Z,1005.3
2023-02-22T10:01:00.816Z,1003.2
2023-02-22T10:02:44.514Z,1006.2
2023-02-22T10:04:28.222Z,1003.9
2023-02-22T10:06:11.933Z,1002
2023-02-22T10:07:55.625Z,997.7
2023-02-22T10:09:39.335Z,996.2
2023-02-22T10:11:23.128Z,994.8
2023-02-22T10:13:06.727Z,987.7
2023-02-22T10:14:50.440Z,982.6
2023-02-22T10:16:34.281Z,981.5
2023-02-22T10:18:17.847Z,980.5
2023-02-22T10:20:01.546Z,985
2023-02-22T10:21:45.249Z,988.6
2023-02-22T10:23:28.955Z,991.6
2023-02-22T10:25:12.655Z,991.9
2023-02-22T10:26:56.357Z,987.1
2023-02-22T10:28:40.078Z,984.2
2023-02-22T10:30:23.760Z,981.7
2023-02-22T10:32:07.458Z,977.3
2023-02-22T10:33:51.168Z,975.5
2023-02-22T10:35:34.896Z,975.9
2023-02-22T10:37:18.572Z,975.6
2023-02-22T10:39:02.275Z,973.4
2023-02-22T10:40:46.011Z,973.3
2023-02-22T10:42:29.680Z,972.7
2023-02-22T10:44:13.384Z,971.1
2023-02-22T10:45:57.070Z,970.8
2023-02-22T10:47:40.823Z,969.6
2023-02-22T10:49:24.494Z,962.4
2023-02-22T10:51:08.197Z,948
2023-02-22T10:52:51.899Z,938.3
2023-02-22T10:54:35.600Z,939.3
2023-02-22T10:56:19.304Z,942.7
2023-02-22T10:58:03.005Z,940.9
2023-02-22T10:59:46.715Z,942
2023-02-22T11:01:30.410Z,943
2023-02-22T11:03:14.114Z,941.5
2023-02-22T11:04:57.827Z,934.4
2023-02-22T11:06:41.543Z,929.9
2023-02-22T11:08:25.213Z,919
2023-02-22T11:10:08.921Z,910.1
2023-02-22T11:11:52.652Z,905.4
2023-02-22T11:13:36.329Z,903.3
2023-02-22T11:15:20.025Z,898.7
2023-02-22T11:17:03.744Z,891.7
2023-02-22T11:18:47.432Z,893.5
2023-02-22T11:20:31.128Z,895.2
2023-02-22T11:22:14.859Z,893.6
2023-02-22T11:23:58.622Z,889.7
2023-02-22T11:25:42.282Z,887.9
2023-02-22T11:27:25.956Z,887.7
2023-02-22T11:29:09.708Z,888.6
2023-02-22T11:30:53.340Z,887.2
2023-02-22T11:32:37.046Z,886.8
2023-02-22T11:34:20.903Z,888.6
2023-02-22T11:36:04.630Z,888.6
2023-02-22T11:37:48.156Z,889.1
2023-02-22T11:39:31.853Z,885.9
2023-02-22T11:41:15.565Z,881.8
2023-02-22T11:42:59.254Z,878.1
2023-02-22T11:44:42.969Z,884.1
2023-02-22T11:46:26.684Z,886.6
2023-02-22T11:48:10.357Z,884.2
2023-02-22T11:49:54.070Z,880.4
2023-02-22T11:51:37.777Z,880.5
2023-02-22T11:53:21.773Z,884.4
2023-02-22T11:55:05.197Z,883.6
2023-02-22T11:56:48.897Z,882.3
2023-02-22T11:58:32.634Z,884.2
2023-02-22T12:00:16.355Z,887
2023-02-22T12:01:59.993Z,887
2023-02-22T12:03:43.688Z,889.8
2023-02-22T12:05:27.439Z,898.8
2023-02-22T12:07:11.173Z,904.7
2023-02-22T12:08:54.818Z,905.8
2023-02-22T12:10:38.546Z,902.1
2023-02-22T12:12:22.306Z,900.2
2023-02-22T12:14:05.932Z,899.3
2023-02-22T12:15:49.602Z,900.8
2023-02-22T12:17:33.343Z,900.1
2023-02-22T12:19:17.012Z,901.3
2023-02-22T12:21:00.748Z,900.8
2023-02-22T12:22:44.423Z,895.4
2023-02-22T12:24:28.127Z,895.2
2023-02-22T12:26:11.810Z,893.3
2023-02-22T12:27:55.524Z,891.6
2023-02-22T12:29:39.245Z,888.7
2023-02-22T12:31:22.944Z,886.6
2023-02-22T12:33:06.626Z,878.1
2023-02-22T12:34:50.336Z,879.6
2023-02-22T12:36:34.037Z,882.2
2023-02-22T12:38:17.734Z,880.5
2023-02-22T12:40:01.451Z,875.3
2023-02-22T12:41:45.274Z,873
2023-02-22T12:43:28.873Z,875.3
2023-02-22T12:45:12.546Z,874.8
2023-02-22T12:46:56.251Z,871.6
2023-02-22T12:48:39.946Z,872.4
2023-02-22T12:50:23.735Z,872.2
2023-02-22T12:52:07.356Z,871.6
2023-02-22T12:53:51.094Z,871
2023-02-22T12:55:34.776Z,865.8
2023-02-22T12:57:18.461Z,866.6
2023-02-22T12:59:02.178Z,869.7
2023-02-22T13:00:45.880Z,873.2
2023-02-22T13:02:29.595Z,872.2
2023-02-22T13:04:13.311Z,869.9
2023-02-22T13:05:56.996Z,867.8
2023-02-22T13:07:40.686Z,865.1
2023-02-22T13:09:24.396Z,862.8
2023-02-22T13:11:08.080Z,860.1
2023-02-22T13:12:51.795Z,860
2023-02-22T13:14:35.501Z,860.8
2023-02-22T13:16:19.283Z,860.7
2023-02-22T13:18:02.925Z,859.6
2023-02-22T13:19:46.599Z,857.9
2023-02-22T13:21:30.303Z,854.5
2023-02-22T13:23:14.187Z,853
2023-02-22T13:24:57.703Z,852.3
2023-02-22T13:26:41.397Z,849.8
2023-02-22T13:28:25.140Z,849.5
2023-02-22T13:30:08.882Z,846.3
2023-02-22T13:31:52.518Z,842.3
2023-02-22T13:33:36.236Z,841.5
2023-02-22T13:35:19.972Z,840.8
2023-02-22T13:37:03.638Z,839.7
2023-02-22T13:38:47.321Z,835.9
2023-02-22T13:40:31.039Z,835.6
2023-02-22T13:42:14.731Z,836.9
2023-02-22T13:43:58.456Z,837.7
2023-02-22T13:45:42.136Z,834.5
2023-02-22T13:47:25.834Z,837.8
2023-02-22T13:49:09.541Z,834.2
2023-02-22T13:50:53.242Z,834.9
2023-02-22T13:52:36.931Z,836.5
2023-02-22T13:54:20.656Z,831.3
2023-02-22T13:56:04.372Z,827.3
2023-02-22T13:57:48.057Z,824
2023-02-22T13:59:31.779Z,823.3
2023-02-22T14:01:15.450Z,823.2
2023-02-22T14:02:59.206Z,821.4
2023-02-22T14:04:42.898Z,819.7
2023-02-22T14:06:26.572Z,815.3
2023-02-22T14:08:10.267Z,816.1
2023-02-22T14:09:54.002Z,815.2
2023-02-22T14:11:37.675Z,818.4
2023-02-22T14:13:21.394Z,818.4
2023-02-22T14:15:05.079Z,818.2
2023-02-22T14:16:48.780Z,815.6
2023-02-22T14:18:32.487Z,816.4
2023-02-22T14:20:16.185Z,820.9
2023-02-22T14:21:59.894Z,821.2
2023-02-22T14:23:43.663Z,821.1
2023-02-22T14:25:27.289Z,821.4
2023-02-22T14:27:10.996Z,817.9
2023-02-22T14:28:54.686Z,818.6
2023-02-22T14:30:38.482Z,810.5
2023-02-22T14:32:22.236Z,810
2023-02-22T14:34:05.841Z,809.5
2023-02-22T14:35:49.520Z,806.2
2023-02-22T14:37:33.360Z,808.4
2023-02-22T14:39:16.910Z,806.4
2023-02-22T14:41:00.767Z,802.6
2023-02-22T14:42:44.345Z,798.2
2023-02-22T14:44:28.023Z,795.9
2023-02-22T14:46:11.715Z,796.7
2023-02-22T14:47:55.496Z,799.4
2023-02-22T14:49:39.175Z,801.5
2023-02-22T14:51:22.870Z,797
2023-02-22T14:53:06.528Z,795.4
2023-02-22T14:54:50.372Z,794.5
2023-02-22T14:56:33.954Z,791.3
2023-02-22T14:58:17.640Z,790.6
2023-02-22T15:00:01.333Z,789.1
2023-02-22T15:01:45.041Z,779
2023-02-22T15:03:28.748Z,777.3
2023-02-22T15:05:12.446Z,778.4
2023-02-22T15:06:56.155Z,780
2023-02-22T15:08:39.844Z,784.5
2023-02-22T15:10:23.606Z,783.5
2023-02-22T15:12:07.253Z,776.1
2023-02-22T15:13:50.952Z,768.5
2023-02-22T15:15:34.678Z,771.2
2023-02-22T15:17:18.366Z,772.9
2023-02-22T15:19:02.105Z,772.9
2023-02-22T15:20:45.773Z,770.5
2023-02-22T15:22:29.506Z,774.7
2023-02-22T15:24:13.312Z,775.5
2023-02-22T15:25:56.907Z,773.7
2023-02-22T15:27:40.578Z,772.3
2023-02-22T15:29:24.285Z,767.2
2023-02-22T15:31:07.987Z,765.8
2023-02-22T15:32:51.682Z,763.4
2023-02-22T15:34:35.392Z,763.2
2023-02-22T15:36:19.093Z,762.3
2023-02-22T15:38:02.794Z,761.2
2023-02-22T15:39:46.561Z,762.1
2023-02-22T15:41:30.244Z,763.1
2023-02-22T15:43:13.901Z,762.9
2023-02-22T15:44:57.610Z,760.7
2023-02-22T15:46:41.307Z,761.5
2023-02-22T15:48:25.053Z,760.3
2023-02-22T15:50:08.710Z,757.7
2023-02-22T15:51:52.444Z,757.4
2023-02-22T15:53:36.118Z,752.4
2023-02-22T15:55:19.808Z,749.2
2023-02-22T15:57:03.553Z,747.8
2023-02-22T15:58:47.236Z,749
2023-02-22T16:00:30.931Z,747.3
2023-02-22T16:02:14.633Z,746.5
2023-02-22T16:03:58.407Z,747.8
2023-02-22T16:05:42.036Z,747.6
2023-02-22T16:07:25.735Z,742.4
2023-02-22T16:09:09.466Z,740.8
2023-02-22T16:10:53.139Z,743
2023-02-22T16:12:36.906Z,744.3
2023-02-22T16:14:20.594Z,746
2023-02-22T16:16:04.243Z,745.8
2023-02-22T16:17:47.948Z,745.4
2023-02-22T16:19:31.674Z,746.4
2023-02-22T16:21:15.470Z,743.3
2023-02-22T16:22:59.155Z,738.9
2023-02-22T16:24:42.785Z,737.3
2023-02-22T16:26:26.471Z,737.7
2023-02-22T16:28:10.161Z,736.3
2023-02-22T16:29:53.877Z,734.6
2023-02-22T16:31:37.576Z,731
2023-02-22T16:33:21.398Z,730.7
2023-02-22T16:35:05.049Z,731.1
2023-02-22T16:36:48.845Z,726.7
2023-02-22T16:38:32.385Z,727.9
2023-02-22T16:40:16.198Z,725.4
2023-02-22T16:41:59.864Z,722.8
2023-02-22T16:43:43.486Z,722.2
2023-02-22T16:45:27.185Z,724.6
2023-02-22T16:47:10.922Z,723.2
2023-02-22T16:48:54.789Z,721.2
2023-02-22T16:50:38.282Z,721.4
2023-02-22T16:52:22.012Z,722.1
2023-02-22T16:54:05.712Z,722.9
2023-02-22T16:55:49.397Z,721.1
2023-02-22T16:57:33.103Z,716
2023-02-22T16:59:16.806Z,714.6
2023-02-22T17:01:00.508Z,716.2
2023-02-22T17:02:44.210Z,716.8
2023-02-22T17:04:27.918Z,714.9
2023-02-22T17:06:11.619Z,714.5
2023-02-22T17:07:55.327Z,714.4
2023-02-22T17:09:39.077Z,714.1
2023-02-22T17:11:22.790Z,714.4
2023-02-22T17:13:06.426Z,714.4
2023-02-22T17:14:50.189Z,714.5
2023-02-22T17:16:33.849Z,714.2
2023-02-22T17:18:17.529Z,709
2023-02-22T17:20:01.235Z,709.2
2023-02-22T17:21:44.938Z,710.9
2023-02-22T17:23:28.637Z,714.6
2023-02-22T17:25:12.339Z,730.1
2023-02-22T17:26:56.104Z,733.1
2023-02-22T17:28:39.789Z,738.8
2023-02-22T17:30:23.457Z,741.5
2023-02-22T17:32:07.153Z,742.7
2023-02-22T17:33:50.871Z,740
2023-02-22T17:35:34.560Z,737.4
2023-02-22T17:37:18.261Z,738.1
2023-02-22T17:39:01.998Z,736.5
2023-02-22T17:40:45.678Z,738.6
2023-02-22T17:42:29.398Z,742.2
2023-02-22T17:44:13.098Z,753.6
2023-02-22T17:45:56.775Z,752.4
2023-02-22T17:47:40.491Z,754.1
2023-02-22T17:49:24.190Z,753.7
2023-02-22T17:51:07.892Z,752.5
2023-02-22T17:52:51.598Z,748.5
2023-02-22T17:54:35.293Z,745.9
2023-02-22T17:56:19.007Z,746.4
2023-02-22T17:58:02.714Z,745.2
2023-02-22T17:59:46.411Z,743.8
2023-02-22T18:01:30.101Z,742
2023-02-22T18:03:13.804Z,739.1
2023-02-22T18:04:57.506Z,739
2023-02-22T18:06:41.242Z,737.2
2023-02-22T18:08:24.917Z,736.3
2023-02-22T18:10:08.616Z,731.2
2023-02-22T18:11:52.328Z,731.9
2023-02-22T18:13:36.021Z,730.7
2023-02-22T18:15:19.723Z,728.6
2023-02-22T18:17:03.456Z,727.4
2023-02-22T18:18:47.273Z,724.8
2023-02-22T18:20:30.832Z,730.8
2023-02-22T18:22:14.539Z,739.2
2023-02-22T18:23:58.307Z,750.4
2023-02-22T18:25:41.958Z,755.1
2023-02-22T18:27:25.661Z,757.9
2023-02-22T18:29:09.342Z,759.4
2023-02-22T18:30:53.052Z,756.2
2023-02-22T18:32:36.745Z,755.7
2023-02-22T18:34:20.519Z,757.8
2023-02-22T18:36:04.155Z,764.8
2023-02-22T18:37:47.861Z,768
2023-02-22T18:39:31.576Z,768.2
2023-02-22T18:41:15.280Z,765.9
2023-02-22T18:42:58.968Z,764.8
2023-02-22T18:44:42.666Z,763.3
2023-02-22T18:46:26.412Z,768.8
2023-02-22T18:48:10.067Z,769.2
2023-02-22T18:49:53.767Z,769.2
2023-02-22T18:51:37.527Z,768.5
2023-02-22T18:53:21.211Z,772.6
2023-02-22T18:55:04.873Z,799.8
2023-02-22T18:56:48.586Z,804.6
2023-02-22T18:58:32.295Z,809.6
2023-02-22T19:00:15.997Z,807.7
2023-02-22T19:01:59.687Z,807.2
2023-02-22T19:03:43.395Z,811.9
2023-02-22T19:05:27.093Z,816.8
2023-02-22T19:07:10.886Z,810.4
2023-02-22T19:08:54.499Z,810.8
2023-02-22T19:10:38.203Z,873.8
2023-02-22T19:12:21.945Z,875.2
2023-02-22T19:14:05.631Z,859.7
2023-02-22T19:15:49.314Z,846.6
2023-02-22T19:17:33.018Z,834.4
2023-02-22T19:19:16.757Z,832.2
2023-02-22T19:21:00.425Z,835.8
2023-02-22T19:22:44.113Z,833.8
2023-02-22T19:24:27.818Z,836.1
2023-02-22T19:26:11.577Z,843.8
2023-02-22T19:27:55.224Z,844.2
2023-02-22T19:29:38.930Z,851.6
2023-02-22T19:31:22.628Z,856.9
2023-02-22T19:33:06.349Z,861.6
2023-02-22T19:34:50.041Z,865.5
2023-02-22T19:36:33.734Z,869.3
2023-02-22T19:38:17.544Z,873.4
2023-02-22T19:40:01.152Z,882
2023-02-22T19:41:44.919Z,888
2023-02-22T19:43:28.556Z,890.2
2023-02-22T19:45:12.267Z,893.1
2023-02-22T19:46:55.980Z,899.2
2023-02-22T19:48:39.680Z,903.8
2023-02-22T19:50:23.449Z,907.5
2023-02-22T19:52:07.133Z,907.4
2023-02-22T19:53:50.771Z,905.7
2023-02-22T19:55:34.483Z,900.7
2023-02-22T19:57:18.279Z,900.3
2023-02-22T19:59:01.924Z,901.5
2023-02-22T20:00:45.580Z,900.8
2023-02-22T20:02:29.285Z,907.4
2023-02-22T20:04:13.029Z,905.2
2023-02-22T20:05:56.703Z,912.2
2023-02-22T20:07:40.407Z,913
2023-02-22T20:09:24.135Z,912.1
2023-02-22T20:11:07.796Z,919.5
2023-02-22T20:12:51.510Z,928.3
2023-02-22T20:14:35.206Z,939.2
2023-02-22T20:16:18.913Z,940.9
2023-02-22T20:18:02.610Z,944
2023-02-22T20:19:46.357Z,944.1
2023-02-22T20:21:30.019Z,947.2
2023-02-22T20:23:13.726Z,946.7
2023-02-22T20:24:57.436Z,951.7
2023-02-22T20:26:41.117Z,949.4
2023-02-22T20:28:24.828Z,948.7
2023-02-22T20:30:08.537Z,950.4
2023-02-22T20:31:52.240Z,950.3
2023-02-22T20:33:35.937Z,947.1
2023-02-22T20:35:19.633Z,940
2023-02-22T20:37:03.347Z,931
2023-02-22T20:38:47.054Z,934
2023-02-22T20:40:30.734Z,935.5
2023-02-22T20:42:14.430Z,950
2023-02-22T20:43:58.146Z,964.8
2023-02-22T20:45:41.846Z,969.9
2023-02-22T20:47:25.600Z,973.1
2023-02-22T20:49:09.309Z,975
2023-02-22T20:50:52.965Z,969.6
2023-02-22T20:52:36.682Z,964.7
2023-02-22T20:54:20.366Z,960.9
2023-02-22T20:56:04.061Z,957.3
2023-02-22T20:57:47.762Z,953.5
2023-02-22T20:59:31.473Z,951.2
2023-02-22T21:01:15.181Z,941.9
2023-02-22T21:02:58.937Z,938.7
2023-02-22T21:04:42.592Z,934.8
2023-02-22T21:06:26.290Z,930.2
2023-02-22T21:08:09.986Z,930.5
2023-02-22T21:09:53.748Z,930.4
2023-02-22T21:11:37.388Z,928.4
2023-02-22T21:13:21.094Z,922.8
2023-02-22T21:15:04.789Z,921.4
2023-02-22T21:16:48.501Z,923
2023-02-22T21:18:32.196Z,921.5
2023-02-22T21:20:15.956Z,920.8
2023-02-22T21:21:59.605Z,921.1
2023-02-22T21:23:43.396Z,920.3
2023-02-22T21:25:27.044Z,916
2023-02-22T21:27:10.898Z,914.2
2023-02-22T21:28:54.486Z,910.4
2023-02-22T21:30:38.127Z,905.7
2023-02-22T21:32:21.867Z,903.2
2023-02-22T21:34:05.530Z,904.8
2023-02-22T21:35:49.268Z,905.3
2023-02-22T21:37:32.931Z,900.6
2023-02-22T21:39:16.627Z,896.4
2023-02-22T21:41:00.328Z,898.5
2023-02-22T21:42:44.039Z,902.4
2023-02-22T21:44:27.734Z,901
2023-02-22T21:46:11.467Z,898.5
2023-02-22T21:47:55.145Z,897
2023-02-22T21:49:38.843Z,896.6
2023-02-22T21:51:22.575Z,895.4
2023-02-22T21:53:06.298Z,894.5
2023-02-22T21:54:50.097Z,896.5
2023-02-22T21:56:33.675Z,898
2023-02-22T21:58:17.512Z,947.3
2023-02-22T22:00:01.070Z,990.3
2023-02-22T22:01:44.755Z,1000.8
2023-02-22T22:03:28.494Z,999.5
2023-02-22T22:05:12.216Z,998.7
2023-02-22T22:06:55.950Z,992.8